createdAt,value
2018-01-24T00:01:31.835Z,0.97
2018-01-24T00:04:33.725Z,1.40
2018-01-24T00:07:35.620Z,1.37
2018-01-24T00:10:37.516Z,1.10
2018-01-24T00:13:39.388Z,1.50
2018-01-24T00:16:41.267Z,1.13
2018-01-24T00:19:43.154Z,1.10
2018-01-24T00:22:45.017Z,1.30
2018-01-24T00:25:46.895Z,1.30
2018-01-24T00:28:48.779Z,1.30
2018-01-24T00:31:50.672Z,1.20
2018-01-24T00:34:52.551Z,1.17
2018-01-24T00:37:54.435Z,1.03
2018-01-24T00:40:56.322Z,1.13
2018-01-24T00:43:58.191Z,1.20
2018-01-24T00:47:00.075Z,1.27
2018-01-24T00:50:01.947Z,1.43
2018-01-24T00:53:03.833Z,1.30
2018-01-24T00:56:05.702Z,1.20
2018-01-24T00:59:07.579Z,1.03
2018-01-24T01:02:09.466Z,0.90
2018-01-24T01:05:11.399Z,0.90
2018-01-24T01:08:13.279Z,1.23
2018-01-24T01:11:15.151Z,1.30
2018-01-24T01:14:17.014Z,1.30
2018-01-24T01:17:18.882Z,1.00
2018-01-24T01:20:20.753Z,1.00
2018-01-24T01:23:22.627Z,1.17
2018-01-24T01:26:24.491Z,1.10
2018-01-24T01:29:26.387Z,1.20
2018-01-24T01:32:28.287Z,1.10
2018-01-24T01:35:30.151Z,1.00
2018-01-24T01:38:32.028Z,1.00
2018-01-24T01:41:33.904Z,0.93
2018-01-24T01:44:35.784Z,1.00
2018-01-24T01:47:37.679Z,1.13
2018-01-24T01:50:39.568Z,1.03
2018-01-24T01:53:41.449Z,1.20
2018-01-24T01:56:43.331Z,1.13
2018-01-24T01:59:45.208Z,1.03
2018-01-24T02:02:47.083Z,1.17
2018-01-24T02:05:48.944Z,1.10
2018-01-24T02:08:50.827Z,1.20
2018-01-24T02:11:52.714Z,1.20
2018-01-24T02:14:54.607Z,1.17
2018-01-24T02:17:56.475Z,1.10
2018-01-24T02:20:58.372Z,1.17
2018-01-24T02:24:00.272Z,0.90
2018-01-24T02:27:02.158Z,0.90
2018-01-24T02:30:04.040Z,1.10
2018-01-24T02:33:05.924Z,0.90
2018-01-24T02:36:07.862Z,1.00
2018-01-24T02:39:09.730Z,0.83
2018-01-24T02:42:11.606Z,1.10
2018-01-24T02:45:13.470Z,1.20
2018-01-24T02:48:15.380Z,1.00
2018-01-24T02:51:17.264Z,0.83
2018-01-24T02:54:19.139Z,0.93
2018-01-24T02:57:21.015Z,0.73
2018-01-24T03:00:22.899Z,0.97
2018-01-24T03:03:24.778Z,0.90
2018-01-24T03:06:26.661Z,1.10
2018-01-24T03:09:28.526Z,0.90
2018-01-24T03:12:30.415Z,0.90
2018-01-24T03:15:32.286Z,0.90
2018-01-24T03:18:34.171Z,0.90
2018-01-24T03:21:36.043Z,0.83
2018-01-24T03:27:45.005Z,0.90
2018-01-24T03:30:46.887Z,0.80
2018-01-24T03:33:48.770Z,0.90
2018-01-24T03:36:50.639Z,0.80
2018-01-24T03:39:52.511Z,0.60
2018-01-24T03:42:54.399Z,0.80
2018-01-24T03:45:56.299Z,0.87
2018-01-24T03:48:58.170Z,0.90
2018-01-24T03:52:00.040Z,0.80
2018-01-24T03:55:01.907Z,0.80
2018-01-24T03:58:03.795Z,1.00
2018-01-24T04:01:05.694Z,0.80
2018-01-24T04:04:07.563Z,0.90
2018-01-24T04:07:09.439Z,0.70
2018-01-24T04:10:11.324Z,0.90
2018-01-24T04:13:13.200Z,0.70
2018-01-24T04:16:15.078Z,0.80
2018-01-24T04:19:16.954Z,0.90
2018-01-24T04:22:18.851Z,0.87
2018-01-24T04:25:20.724Z,1.00
2018-01-24T04:28:22.612Z,0.80
2018-01-24T04:31:24.477Z,0.80
2018-01-24T04:34:26.385Z,0.70
2018-01-24T04:37:28.263Z,1.00
2018-01-24T04:40:30.127Z,0.90
2018-01-24T04:43:32.036Z,0.90
2018-01-24T04:46:33.919Z,0.90
2018-01-24T04:49:35.791Z,0.90
2018-01-24T04:52:37.688Z,0.80
2018-01-24T04:55:39.562Z,0.90
2018-01-24T04:58:41.455Z,0.80
2018-01-24T05:01:43.327Z,0.70
2018-01-24T05:04:45.207Z,0.67
2018-01-24T05:07:47.095Z,0.70
2018-01-24T05:10:48.978Z,0.73
2018-01-24T05:13:50.855Z,0.70
2018-01-24T05:16:52.725Z,0.87
2018-01-24T05:19:54.618Z,0.90
2018-01-24T05:22:56.498Z,0.93
2018-01-24T05:25:58.370Z,0.80
2018-01-24T05:29:00.250Z,0.83
2018-01-24T05:32:02.156Z,0.77
2018-01-24T05:35:04.036Z,0.80
2018-01-24T05:38:05.929Z,0.73
2018-01-24T05:41:07.794Z,0.70
2018-01-24T05:44:09.671Z,1.00
2018-01-24T05:47:11.647Z,0.90
2018-01-24T05:50:13.543Z,0.90
2018-01-24T05:53:15.419Z,0.80
2018-01-24T05:56:17.282Z,0.70
2018-01-24T05:59:19.151Z,0.70
2018-01-24T06:02:21.045Z,0.60
2018-01-24T06:05:22.923Z,0.80
2018-01-24T06:08:24.820Z,0.73
2018-01-24T06:11:26.676Z,0.87
2018-01-24T06:14:28.584Z,0.77
2018-01-24T06:17:30.439Z,0.80
2018-01-24T06:20:32.322Z,0.90
2018-01-24T06:23:34.207Z,1.00
2018-01-24T06:26:36.091Z,1.00
2018-01-24T06:29:37.958Z,0.70
2018-01-24T06:32:39.831Z,1.00
2018-01-24T06:35:41.717Z,0.90
2018-01-24T06:38:43.654Z,0.93
2018-01-24T06:41:46.228Z,0.90
2018-01-24T06:44:48.099Z,0.80
2018-01-24T06:47:50.018Z,0.83
2018-01-24T06:50:51.870Z,0.90
2018-01-24T06:53:53.743Z,0.70
2018-01-24T06:56:55.627Z,0.80
2018-01-24T06:59:57.507Z,0.70
2018-01-24T07:02:59.395Z,1.00
2018-01-24T07:06:01.310Z,0.90
2018-01-24T07:09:03.271Z,0.93
2018-01-24T07:12:05.152Z,1.10
2018-01-24T07:15:07.027Z,1.07
2018-01-24T07:18:08.895Z,0.80
2018-01-24T07:21:10.771Z,0.90
2018-01-24T07:24:12.653Z,1.00
2018-01-24T07:27:14.528Z,1.00
2018-01-24T07:30:16.404Z,1.00
2018-01-24T07:33:18.279Z,1.03
2018-01-24T07:36:20.203Z,0.90
2018-01-24T07:39:22.085Z,0.80
2018-01-24T07:42:23.959Z,0.80
2018-01-24T07:45:25.840Z,1.00
2018-01-24T07:48:27.726Z,1.10
2018-01-24T07:51:29.602Z,1.07
2018-01-24T07:54:31.478Z,1.47
2018-01-24T07:57:33.351Z,1.00
2018-01-24T08:00:35.239Z,1.00
2018-01-24T08:03:37.147Z,1.10
2018-01-24T08:06:39.018Z,0.90
2018-01-24T08:09:40.902Z,1.00
2018-01-24T08:12:42.799Z,1.10
2018-01-24T08:15:44.681Z,0.90
2018-01-24T08:18:46.554Z,1.27
2018-01-24T08:21:48.432Z,0.80
2018-01-24T08:24:50.331Z,1.67
2018-01-24T08:27:52.209Z,1.07
2018-01-24T08:30:54.083Z,1.40
2018-01-24T08:33:55.943Z,1.30
2018-01-24T08:36:57.829Z,1.20
2018-01-24T08:39:59.699Z,1.50
2018-01-24T08:43:01.595Z,1.20
2018-01-24T08:46:03.463Z,1.30
2018-01-24T08:49:05.347Z,1.20
2018-01-24T08:52:07.211Z,1.47
2018-01-24T08:55:09.101Z,1.13
2018-01-24T08:58:10.979Z,1.10
2018-01-24T09:01:18.195Z,1.20
2018-01-24T09:04:25.591Z,1.00
2018-01-24T09:07:32.995Z,1.20
2018-01-24T09:10:40.398Z,0.80
2018-01-24T09:13:47.747Z,1.03
2018-01-24T09:16:54.954Z,1.10
2018-01-24T09:20:02.311Z,1.07
2018-01-24T09:23:19.434Z,1.20
2018-01-24T09:26:21.312Z,1.20
2018-01-24T09:29:23.178Z,1.23
2018-01-24T09:32:25.058Z,1.10
2018-01-24T09:35:26.964Z,0.93
2018-01-24T09:38:29.089Z,1.10
2018-01-24T09:41:30.966Z,0.80
2018-01-24T09:44:32.840Z,1.10
2018-01-24T09:47:34.722Z,1.10
2018-01-24T09:50:36.586Z,1.00
2018-01-24T09:53:38.472Z,1.00
2018-01-24T09:56:40.358Z,0.97
2018-01-24T09:59:42.227Z,0.80
2018-01-24T10:02:44.099Z,0.90
2018-01-24T10:05:45.979Z,0.90
2018-01-24T10:08:47.871Z,1.07
2018-01-24T10:11:49.752Z,0.90
2018-01-24T10:14:51.627Z,1.07
2018-01-24T10:17:53.511Z,1.00
2018-01-24T10:20:55.719Z,0.80
2018-01-24T10:23:57.600Z,1.10
2018-01-24T10:26:59.503Z,1.03
2018-01-24T10:30:01.398Z,0.90
2018-01-24T10:33:03.290Z,0.83
2018-01-24T10:36:05.179Z,1.10
2018-01-24T10:39:07.047Z,0.90
2018-01-24T10:42:08.923Z,0.80
2018-01-24T10:45:10.787Z,0.80
2018-01-24T10:48:12.660Z,0.70
2018-01-24T10:51:14.538Z,0.90
2018-01-24T10:54:16.411Z,1.00
2018-01-24T10:57:18.282Z,0.90
2018-01-24T11:00:20.167Z,1.07
2018-01-24T11:03:22.055Z,0.90
2018-01-24T11:06:23.930Z,0.90
2018-01-24T11:09:25.802Z,0.73
2018-01-24T11:12:27.671Z,0.83
2018-01-24T11:15:29.543Z,0.90
2018-01-24T11:18:31.431Z,0.67
2018-01-24T11:21:33.319Z,0.80
2018-01-24T11:24:35.210Z,0.87
2018-01-24T11:27:37.083Z,0.70
2018-01-24T11:30:39.123Z,0.73
2018-01-24T11:33:40.997Z,0.70
2018-01-24T11:36:42.871Z,0.70
2018-01-24T11:39:44.738Z,0.80
2018-01-24T11:42:46.606Z,0.73
2018-01-24T11:45:48.804Z,0.80
2018-01-24T11:48:50.683Z,0.80
2018-01-24T11:51:52.560Z,0.70
2018-01-24T11:54:54.430Z,0.70
2018-01-24T11:57:56.400Z,0.80
2018-01-24T12:00:58.387Z,0.70
2018-01-24T12:04:00.271Z,0.60
2018-01-24T12:07:02.159Z,0.80
2018-01-24T12:10:04.028Z,0.93
2018-01-24T12:13:05.899Z,0.60
2018-01-24T12:16:07.775Z,0.60
2018-01-24T12:19:09.684Z,0.53
2018-01-24T12:22:11.583Z,0.80
2018-01-24T12:25:13.518Z,0.80
2018-01-24T12:28:15.399Z,0.60
2018-01-24T12:31:17.270Z,0.70
2018-01-24T12:34:19.144Z,0.67
2018-01-24T12:37:21.030Z,0.70
2018-01-24T12:40:22.908Z,0.60
2018-01-24T12:43:24.795Z,0.50
2018-01-24T12:46:26.670Z,0.70
2018-01-24T12:49:28.550Z,0.67
2018-01-24T12:52:30.435Z,0.60
2018-01-24T12:55:32.358Z,0.70
2018-01-24T12:58:34.180Z,0.70
2018-01-24T13:01:36.054Z,0.80
2018-01-24T13:04:37.962Z,0.90
2018-01-24T13:07:39.806Z,0.70
2018-01-24T13:10:41.691Z,0.60
2018-01-24T13:13:43.607Z,0.73
2018-01-24T13:16:45.510Z,0.80
2018-01-24T13:19:47.366Z,0.60
2018-01-24T13:22:49.283Z,0.60
2018-01-24T13:25:51.142Z,0.70
2018-01-24T13:28:53.023Z,0.60
2018-01-24T13:31:54.891Z,0.70
2018-01-24T13:34:57.035Z,0.50
2018-01-24T13:37:58.911Z,0.60
2018-01-24T13:41:00.787Z,0.57
2018-01-24T13:44:02.675Z,0.63
2018-01-24T13:47:04.549Z,0.70
2018-01-24T13:50:06.430Z,0.50
2018-01-24T13:53:08.311Z,0.60
2018-01-24T13:56:10.187Z,0.57
2018-01-24T13:59:12.075Z,0.50
2018-01-24T14:02:14.079Z,0.67
2018-01-24T14:05:15.950Z,0.63
2018-01-24T14:08:17.823Z,0.50
2018-01-24T14:11:19.699Z,0.60
2018-01-24T14:14:21.566Z,0.50
2018-01-24T14:17:23.440Z,0.60
2018-01-24T14:20:25.317Z,0.50
2018-01-24T14:23:27.188Z,0.60
2018-01-24T14:26:29.068Z,0.40
2018-01-24T14:29:30.946Z,0.50
2018-01-24T14:32:32.843Z,0.60
2018-01-24T14:35:34.743Z,0.50
2018-01-24T14:38:36.619Z,0.40
2018-01-24T14:41:38.723Z,0.50
2018-01-24T14:44:40.603Z,0.50
2018-01-24T14:47:42.478Z,0.50
2018-01-24T14:50:44.383Z,0.50
2018-01-24T14:53:46.243Z,0.50
2018-01-24T14:56:48.124Z,0.50
2018-01-24T14:59:49.995Z,0.57
2018-01-24T15:02:51.878Z,0.50
2018-01-24T15:05:53.912Z,0.50
2018-01-24T15:08:55.775Z,0.47
2018-01-24T15:11:57.702Z,0.50
2018-01-24T15:14:59.568Z,0.40
2018-01-24T15:18:01.450Z,0.43
2018-01-24T15:21:03.331Z,0.50
2018-01-24T15:24:05.208Z,0.47
2018-01-24T15:27:07.078Z,0.50
2018-01-24T15:30:08.983Z,0.40
2018-01-24T15:33:10.850Z,0.60
2018-01-24T15:36:12.727Z,0.40
2018-01-24T15:39:14.607Z,0.50
2018-01-24T15:42:16.480Z,0.40
2018-01-24T15:45:18.411Z,0.50
2018-01-24T15:48:20.302Z,0.50
2018-01-24T15:51:22.191Z,0.60
2018-01-24T15:54:24.067Z,0.40
2018-01-24T15:57:25.943Z,0.60
2018-01-24T16:00:27.852Z,0.57
2018-01-24T16:03:29.703Z,0.40
2018-01-24T16:06:31.621Z,0.37
2018-01-24T16:09:33.452Z,0.40
2018-01-24T16:12:35.385Z,0.60
2018-01-24T16:15:37.255Z,0.47
2018-01-24T16:18:39.123Z,0.40
2018-01-24T16:21:41.007Z,0.40
2018-01-24T16:24:42.883Z,0.50
2018-01-24T16:27:44.756Z,0.47
2018-01-24T16:30:46.638Z,0.50
2018-01-24T16:33:48.668Z,0.40
2018-01-24T16:36:50.535Z,0.50
2018-01-24T16:39:52.432Z,0.50
2018-01-24T16:42:54.398Z,0.47
2018-01-24T16:45:56.272Z,0.50
2018-01-24T16:48:58.146Z,0.47
2018-01-24T16:52:00.013Z,0.50
2018-01-24T16:55:01.888Z,0.60
2018-01-24T16:58:03.790Z,0.47
2018-01-24T17:01:05.667Z,0.40
2018-01-24T17:04:07.603Z,0.50
2018-01-24T17:07:09.484Z,0.50
2018-01-24T17:10:11.361Z,0.53
2018-01-24T17:13:13.244Z,0.80
2018-01-24T17:16:15.119Z,0.60
2018-01-24T17:19:17.035Z,0.70
2018-01-24T17:22:18.920Z,0.73
2018-01-24T17:25:20.799Z,0.70
2018-01-24T17:28:22.675Z,0.80
2018-01-24T17:31:24.565Z,0.60
2018-01-24T17:34:26.454Z,0.70
2018-01-24T17:37:28.325Z,0.70
2018-01-24T17:40:30.206Z,0.80
2018-01-24T17:43:32.094Z,0.87
2018-01-24T17:46:33.984Z,0.70
2018-01-24T17:49:36.918Z,0.80
2018-01-24T17:52:38.791Z,0.73
2018-01-24T17:55:40.696Z,0.90
2018-01-24T17:58:42.586Z,0.83
2018-01-24T18:01:44.499Z,0.80
2018-01-24T18:04:46.394Z,0.73
2018-01-24T18:07:48.318Z,0.90
2018-01-24T18:10:50.215Z,0.90
2018-01-24T18:13:52.119Z,0.77
2018-01-24T18:16:54.003Z,0.87
2018-01-24T18:19:55.872Z,1.00
2018-01-24T18:22:57.833Z,0.80
2018-01-24T18:25:59.766Z,1.10
2018-01-24T18:29:01.663Z,0.90
2018-01-24T18:32:03.530Z,0.73
2018-01-24T18:35:05.415Z,1.00
2018-01-24T18:38:07.349Z,1.00
2018-01-24T18:41:09.227Z,1.00
2018-01-24T18:44:11.130Z,1.00
2018-01-24T18:47:13.082Z,1.10
2018-01-24T18:50:15.104Z,1.30
2018-01-24T18:53:17.088Z,1.00
2018-01-24T18:56:19.013Z,1.00
2018-01-24T18:59:20.993Z,1.20
2018-01-24T19:02:22.903Z,1.13
2018-01-24T19:05:24.814Z,0.90
2018-01-24T19:08:26.716Z,1.20
2018-01-24T19:11:53.937Z,1.20
2018-01-24T19:14:55.940Z,1.10
2018-01-24T19:17:57.917Z,1.17
2018-01-24T19:20:59.788Z,1.40
2018-01-24T19:24:01.687Z,1.50
2018-01-24T19:27:03.587Z,1.60
2018-01-24T19:30:05.687Z,1.47
2018-01-24T19:33:07.584Z,1.47
2018-01-24T19:36:09.451Z,1.23
2018-01-24T19:39:11.327Z,1.40
2018-01-24T19:42:13.203Z,1.33
2018-01-24T19:45:15.074Z,1.50
2018-01-24T19:48:16.953Z,1.40
2018-01-24T19:51:18.896Z,1.57
2018-01-24T19:54:20.913Z,1.27
2018-01-24T19:57:22.798Z,1.43
2018-01-24T20:00:24.695Z,1.50
2018-01-24T20:03:26.586Z,1.40
2018-01-24T20:06:28.463Z,1.43
2018-01-24T20:09:30.340Z,1.20
2018-01-24T20:12:32.255Z,1.63
2018-01-24T20:15:34.164Z,1.50
2018-01-24T20:18:36.127Z,1.60
2018-01-24T20:21:38.052Z,1.50
2018-01-24T20:24:39.918Z,1.60
2018-01-24T20:27:41.807Z,1.77
2018-01-24T20:30:43.687Z,1.40
2018-01-24T20:33:45.548Z,1.80
2018-01-24T20:36:47.507Z,1.90
2018-01-24T20:39:49.419Z,1.83
2018-01-24T20:42:51.430Z,1.43
2018-01-24T20:45:53.338Z,1.30
2018-01-24T20:48:55.236Z,1.70
2018-01-24T20:51:57.156Z,1.40
2018-01-24T20:54:59.050Z,1.33
2018-01-24T20:58:00.955Z,1.53
2018-01-24T21:01:02.944Z,1.50
2018-01-24T21:04:04.843Z,1.50
2018-01-24T21:07:06.844Z,1.67
2018-01-24T21:10:08.839Z,1.53
2018-01-24T21:13:10.832Z,1.60
2018-01-24T21:16:12.744Z,1.60
2018-01-24T21:19:14.730Z,1.57
2018-01-24T21:22:16.654Z,1.60
2018-01-24T21:25:18.626Z,1.43
2018-01-24T21:28:20.535Z,1.60
2018-01-24T21:31:22.507Z,1.63
2018-01-24T21:34:24.465Z,1.40
2018-01-24T21:37:26.340Z,1.70
2018-01-24T21:40:28.255Z,1.60
2018-01-24T21:43:30.165Z,1.60
2018-01-24T21:46:32.043Z,1.60
2018-01-24T21:49:33.955Z,1.60
2018-01-24T21:52:35.949Z,1.70
2018-01-24T21:55:37.835Z,1.50
2018-01-24T21:58:39.779Z,1.50
2018-01-24T22:01:41.782Z,1.87
2018-01-24T22:04:43.704Z,1.80
2018-01-24T22:07:45.579Z,1.60
2018-01-24T22:10:47.455Z,1.70
2018-01-24T22:13:49.441Z,1.80
2018-01-24T22:16:51.407Z,1.63
2018-01-24T22:19:53.275Z,1.80
2018-01-24T22:22:55.178Z,1.77
2018-01-24T22:25:57.092Z,1.90
2018-01-24T22:28:58.962Z,1.77
2018-01-24T22:32:00.843Z,1.83
2018-01-24T22:35:02.764Z,1.80
2018-01-24T22:38:04.921Z,1.70
2018-01-24T22:41:06.784Z,1.83
2018-01-24T22:44:08.795Z,1.80
2018-01-24T22:47:10.671Z,2.27
2018-01-24T22:50:12.555Z,1.97
2018-01-24T22:53:14.439Z,2.27
2018-01-24T22:56:16.310Z,1.90
2018-01-24T22:59:18.187Z,1.80
2018-01-24T23:02:20.071Z,1.87
2018-01-24T23:05:21.951Z,1.83
2018-01-24T23:08:23.827Z,2.03
2018-01-24T23:11:25.704Z,2.07
2018-01-24T23:14:27.582Z,1.77
2018-01-24T23:17:29.460Z,1.90
2018-01-24T23:20:31.331Z,2.10
2018-01-24T23:23:33.206Z,2.30
2018-01-24T23:26:35.089Z,1.77
2018-01-24T23:29:37.069Z,1.93
2018-01-24T23:32:38.957Z,2.10
2018-01-24T23:35:40.827Z,1.97
2018-01-24T23:38:42.710Z,2.00
2018-01-24T23:41:44.580Z,1.97
2018-01-24T23:44:46.464Z,1.90
2018-01-24T23:47:48.356Z,1.80
2018-01-24T23:50:50.232Z,2.00
2018-01-24T23:53:52.115Z,1.83
2018-01-24T23:56:54.003Z,1.83
2018-01-24T23:59:55.871Z,2.00
